Terminal Aerodrome Forecast
Issued by NWS Boise, ID

Home | Current Version | Previous Version | Text Only | Print | Product List | Glossary On
Versions: 1 2 3 4 5 6 7 8 9 10 11 12 13 14 15 16 17 18 19 20 21 22
000
FTUS45 KBOI 201936 AAA
TAFBOI
TAF AMD
KBOI 201936Z 2020/2118 13015G25KT P6SM BKN050
     FM210000 13011KT 6SM -SHRA SCT015 OVC025
     FM210400 13006KT 3SM -SHRASN BR OVC009
     FM210900 VRB06KT 6SM BR SCT015 OVC035=

USA.gov is the U.S. government's official web portal to all federal, state and local government web resources and services.